Time;durP1;ratioP1;P1;durP2;ratioP2;P2;SDS_P1;SDS_P2;PMS_P1;PMS_P2;Temp;Humidity;BMP_temperature;BMP_pressure;BME280_temperature;BME280_humidity;BME280_pressure;Samples;Min_cycle;Max_cycle;Signal;HPM_P1;HPM_P2
2022/08/14 00:02:50;;;;;;;11.65;10.45;;;;;;;17.83;100.00;98461.86;2231018;79;21036;-90
2022/08/14 00:05:51;;;;;;;11.95;10.75;;;;;;;17.82;100.00;98460.22;2228905;79;21028;-90
2022/08/14 00:08:51;;;;;;;12.28;10.40;;;;;;;17.83;100.00;98464.99;2228933;79;21016;-90
2022/08/14 00:11:53;;;;;;;12.88;11.65;;;;;;;17.85;100.00;98456.32;2235439;80;21031;-89
2022/08/14 00:14:53;;;;;;;11.93;10.23;;;;;;;17.84;100.00;98456.04;2233712;79;21092;-91
2022/08/14 00:17:54;;;;;;;15.50;12.13;;;;;;;17.85;100.00;98450.50;2231177;79;21051;-89
2022/08/14 00:20:55;;;;;;;19.35;11.40;;;;;;;17.87;100.00;98443.12;2231583;79;21520;-90
2022/08/14 00:23:55;;;;;;;11.50;10.40;;;;;;;17.89;100.00;98439.72;2231000;79;21031;-90
2022/08/14 00:26:57;;;;;;;11.28;9.58;;;;;;;17.89;100.00;98438.39;2233201;79;21051;-89
2022/08/14 00:29:57;;;;;;;13.03;10.28;;;;;;;17.90;100.00;98438.68;2232835;79;21545;-89
2022/08/14 00:32:58;;;;;;;12.43;10.45;;;;;;;17.92;100.00;98441.09;2234118;79;20985;-89
2022/08/14 00:35:59;;;;;;;10.95;9.85;;;;;;;17.93;100.00;98440.08;2235190;80;20980;-90
2022/08/14 00:39:00;;;;;;;11.75;10.40;;;;;;;17.94;100.00;98441.69;2232594;79;21036;-90
2022/08/14 00:42:01;;;;;;;12.30;11.00;;;;;;;17.95;100.00;98434.55;2232124;79;21142;-89
2022/08/14 00:45:01;;;;;;;13.25;11.00;;;;;;;17.94;100.00;98428.96;2230246;79;21065;-90
2022/08/14 00:48:02;;;;;;;13.18;10.38;;;;;;;17.95;100.00;98429.24;2233178;79;21064;-89
2022/08/14 00:51:03;;;;;;;12.25;10.55;;;;;;;17.96;100.00;98418.93;2233577;79;21079;-90
2022/08/14 00:54:03;;;;;;;11.68;10.53;;;;;;;17.96;100.00;98421.06;2230370;79;20949;-89
2022/08/14 00:57:04;;;;;;;14.10;10.25;;;;;;;17.97;100.00;98422.66;2233929;79;21104;-89
2022/08/14 01:00:05;;;;;;;11.22;10.03;;;;;;;17.99;100.00;98422.42;2231710;79;21507;-89
2022/08/14 01:03:06;;;;;;;12.07;10.43;;;;;;;18.00;100.00;98431.98;2231893;79;21000;-90
2022/08/14 01:06:07;;;;;;;11.30;9.93;;;;;;;18.00;100.00;98429.33;2233865;79;21075;-89
2022/08/14 01:09:08;;;;;;;10.72;9.53;;;;;;;18.01;100.00;98426.44;2235595;80;20973;-89
2022/08/14 01:12:09;;;;;;;11.75;10.55;;;;;;;17.98;100.00;98424.80;2230888;79;21019;-89
2022/08/14 01:15:10;;;;;;;12.55;9.18;;;;;;;17.98;100.00;98427.44;2231714;79;21085;-91
2022/08/14 01:21:30;;;;;;;10.90;9.50;;;;;;;17.97;100.00;98427.16;2237528;79;20933;-89
2022/08/14 01:24:31;;;;;;;12.33;11.12;;;;;;;17.92;100.00;98419.90;2230890;79;21120;-89
2022/08/14 01:27:34;;;;;;;12.73;10.78;;;;;;;17.89;100.00;98420.38;2232879;80;21060;-90
2022/08/14 01:30:37;;;;;;;11.12;10.13;;;;;;;17.86;100.00;98416.36;2230546;79;21084;-89
2022/08/14 01:33:39;;;;;;;11.53;10.30;;;;;;;17.84;100.00;98414.47;2229104;79;21024;-89
2022/08/14 01:36:40;;;;;;;12.18;10.90;;;;;;;17.85;100.00;98418.73;2226528;79;21059;-90
2022/08/14 01:39:41;;;;;;;13.00;11.38;;;;;;;17.86;100.00;98417.69;2231943;79;21112;-89
2022/08/14 01:42:42;;;;;;;12.63;10.63;;;;;;;17.86;100.00;98414.23;2227865;79;21032;-90
2022/08/14 01:45:43;;;;;;;12.70;11.35;;;;;;;17.85;100.00;98409.45;2232226;79;21076;-89
2022/08/14 01:48:44;;;;;;;13.48;11.57;;;;;;;17.87;100.00;98407.37;2231380;79;20992;-89
2022/08/14 01:54:47;;;;;;;13.78;12.33;;;;;;;17.88;100.00;98408.17;2152924;82;20999;-90
2022/08/14 01:57:48;;;;;;;16.50;14.00;;;;;;;17.91;100.00;98413.00;2153370;82;21065;-89
2022/08/14 02:00:52;;;;;;;14.40;12.73;;;;;;;17.93;100.00;98410.94;2154128;82;21581;-90
2022/08/14 02:03:51;;;;;;;15.25;12.15;;;;;;;17.95;100.00;98404.08;2152809;82;21031;-89
2022/08/14 02:06:52;;;;;;;14.45;12.30;;;;;;;17.97;100.00;98405.45;2152955;82;21125;-90
2022/08/14 02:09:53;;;;;;;15.45;11.88;;;;;;;17.96;100.00;98403.84;2153257;82;21042;-88
2022/08/14 02:12:53;;;;;;;14.03;12.55;;;;;;;17.96;100.00;98400.39;2153028;82;21018;-89
2022/08/14 02:15:58;;;;;;;15.18;12.23;;;;;;;17.93;100.00;98399.55;2152275;82;21114;-89
2022/08/14 02:18:57;;;;;;;15.23;11.73;;;;;;;17.92;100.00;98392.09;2153363;82;21137;-89
2022/08/14 02:21:58;;;;;;;16.80;13.20;;;;;;;17.92;100.00;98385.47;2156365;83;20991;-88
2022/08/14 02:24:58;;;;;;;16.37;11.78;;;;;;;17.90;100.00;98396.30;2157245;82;21070;-89
2022/08/14 02:27:59;;;;;;;15.98;13.38;;;;;;;17.90;100.00;98391.52;2158101;82;21106;-89
2022/08/14 02:31:00;;;;;;;14.65;13.03;;;;;;;17.89;100.00;98388.08;2154434;82;21057;-91
2022/08/14 02:34:01;;;;;;;17.55;13.72;;;;;;;17.87;100.00;98386.19;2153602;82;21561;-89
2022/08/14 02:37:01;;;;;;;19.65;13.93;;;;;;;17.87;100.00;98386.19;2156262;82;21490;-89
2022/08/14 02:40:02;;;;;;;17.35;13.72;;;;;;;17.85;100.00;98377.68;2155007;83;21490;-90
2022/08/14 02:43:03;;;;;;;19.92;15.63;;;;;;;17.85;100.00;98384.30;2153309;82;21041;-89
2022/08/14 02:46:04;;;;;;;20.43;15.85;;;;;;;17.85;100.00;98389.59;2128419;82;21120;-89
2022/08/14 02:49:07;;;;;;;16.32;14.55;;;;;;;17.88;100.00;98379.05;2154156;83;21078;-89
2022/08/14 02:52:09;;;;;;;19.27;14.15;;;;;;;17.86;100.00;98381.12;2213128;79;22129;-89
2022/08/14 02:55:10;;;;;;;19.50;16.07;;;;;;;17.85;100.00;98382.17;2232052;79;21061;-89
2022/08/14 02:58:10;;;;;;;21.82;17.10;;;;;;;17.82;100.00;98383.42;2231606;79;21016;-90
2022/08/14 03:01:11;;;;;;;25.95;17.15;;;;;;;17.83;100.00;98385.55;2235600;79;20969;-90
2022/08/14 03:04:12;;;;;;;21.05;17.30;;;;;;;17.81;100.00;98383.66;2235654;79;21562;-90
2022/08/14 03:07:15;;;;;;;19.48;15.65;;;;;;;17.80;100.00;98388.16;2233526;79;20997;-90
2022/08/14 03:10:15;;;;;;;20.55;16.97;;;;;;;17.79;100.00;98393.69;2233629;79;21528;-90
2022/08/14 03:13:16;;;;;;;19.73;16.93;;;;;;;17.79;100.00;98384.42;2232014;79;21063;-88
2022/08/14 03:16:17;;;;;;;20.80;17.32;;;;;;;17.79;100.00;98382.58;2232712;79;21547;-90
2022/08/14 03:19:17;;;;;;;22.07;17.35;;;;;;;17.79;100.00;98372.50;2235090;79;21019;-89
2022/08/14 03:22:18;;;;;;;23.40;16.70;;;;;;;17.80;100.00;98370.14;2231331;79;21097;-89
2022/08/14 03:25:21;;;;;;;17.48;15.55;;;;;;;17.79;100.00;98371.18;2235053;80;21028;-89
2022/08/14 03:28:23;;;;;;;18.50;15.53;;;;;;;17.79;100.00;98367.21;2233955;79;21008;-89
2022/08/14 03:31:24;;;;;;;20.92;17.02;;;;;;;17.78;100.00;98363.76;2232185;79;21072;-90
2022/08/14 03:34:26;;;;;;;19.57;15.35;;;;;;;17.77;100.00;98365.32;2233173;79;21581;-90
2022/08/14 03:37:27;;;;;;;24.02;17.65;;;;;;;17.73;100.00;98363.64;2232385;79;21001;-89
2022/08/14 03:40:28;;;;;;;18.77;15.00;;;;;;;17.74;100.00;98364.45;2235395;79;21078;-90
2022/08/14 03:43:29;;;;;;;21.77;17.67;;;;;;;17.74;100.00;98362.63;2233510;79;21020;-90
2022/08/14 03:46:30;;;;;;;20.55;15.53;;;;;;;17.74;100.00;98364.45;2235542;80;21399;-90
2022/08/14 03:49:31;;;;;;;20.20;16.90;;;;;;;17.73;100.00;98363.64;2237609;79;21008;-89
2022/08/14 03:52:32;;;;;;;18.20;14.55;;;;;;;17.74;100.00;98361.80;2234466;79;20989;-89
2022/08/14 03:55:33;;;;;;;20.52;16.23;;;;;;;17.75;100.00;98360.78;2237680;79;21028;-88
2022/08/14 03:58:34;;;;;;;15.80;13.43;;;;;;;17.79;100.00;98365.36;2235087;79;21092;-90
2022/08/14 04:01:35;;;;;;;15.40;13.03;;;;;;;17.83;100.00;98365.20;2233802;79;21008;-89
2022/08/14 04:04:36;;;;;;;16.30;14.38;;;;;;;17.88;100.00;98365.80;2235740;80;21040;-89
2022/08/14 04:07:38;;;;;;;13.40;11.88;;;;;;;17.91;100.00;98364.00;2235513;79;21499;-88
2022/08/14 04:10:38;;;;;;;14.25;12.75;;;;;;;17.96;100.00;98366.77;2231475;79;21099;-89
2022/08/14 04:13:39;;;;;;;13.08;11.70;;;;;;;18.00;100.00;98369.21;2232190;79;21441;-90
2022/08/14 04:16:45;;;;;;;14.50;12.65;;;;;;;18.04;100.00;98369.56;2235375;79;20977;-89
2022/08/14 04:19:43;;;;;;;13.38;11.80;;;;;;;18.04;100.00;98364.27;2226741;79;21116;-89
2022/08/14 04:22:44;;;;;;;14.87;12.95;;;;;;;18.03;100.00;98375.38;2232375;79;21095;-89
2022/08/14 04:25:46;;;;;;;16.60;13.60;;;;;;;18.00;100.00;98367.09;2231369;79;21000;-90
2022/08/14 04:28:47;;;;;;;14.03;12.55;;;;;;;18.01;100.00;98369.49;2230484;79;21504;-91
2022/08/14 04:31:49;;;;;;;14.18;12.68;;;;;;;18.05;100.00;98365.34;2235497;79;21043;-90
2022/08/14 04:34:50;;;;;;;11.33;10.13;;;;;;;18.10;100.00;98366.75;2234315;79;21063;-88
2022/08/14 04:44:29;;;;;;;15.20;13.60;;;;;;;18.21;100.00;98365.64;2239463;79;21020;-90
2022/08/14 04:50:49;;;;;;;16.82;14.33;;;;;;;18.21;100.00;98362.47;2233032;79;21044;-90
2022/08/14 04:53:50;;;;;;;16.55;14.45;;;;;;;18.25;100.00;98365.45;2235443;80;21035;-90
2022/08/14 04:56:51;;;;;;;16.17;14.47;;;;;;;18.29;100.00;98365.27;2234726;79;21006;-89
2022/08/14 04:59:52;;;;;;;18.10;13.95;;;;;;;18.29;100.00;98362.62;2233067;79;20993;-88
2022/08/14 05:02:53;;;;;;;14.85;13.35;;;;;;;18.40;100.00;98363.88;2234021;79;21024;-89
2022/08/14 05:05:54;;;;;;;13.58;12.18;;;;;;;18.47;100.00;98359.23;2232576;79;21508;-88
2022/08/14 05:08:54;;;;;;;15.10;13.60;;;;;;;18.52;100.00;98361.16;2234821;80;21063;-88
2022/08/14 05:11:55;;;;;;;13.00;11.65;;;;;;;18.56;100.00;98358.33;2228934;79;21016;-90
2022/08/14 05:14:56;;;;;;;15.60;14.00;;;;;;;18.60;100.00;98359.45;2234859;80;21567;-89
2022/08/14 05:17:56;;;;;;;15.90;14.30;;;;;;;18.58;100.00;98357.56;2231170;79;21582;-90
2022/08/14 05:20:57;;;;;;;17.65;14.03;;;;;;;18.54;100.00;98352.96;2232380;79;21523;-92
2022/08/14 05:23:58;;;;;;;16.75;14.98;;;;;;;18.50;100.00;98348.67;2231758;79;21064;-91
2022/08/14 05:26:59;;;;;;;14.73;13.18;;;;;;;18.47;100.00;98353.94;2235212;79;21024;-90
2022/08/14 05:30:00;;;;;;;15.00;12.82;;;;;;;18.46;100.00;98354.16;2235573;80;20968;-90
2022/08/14 05:33:00;;;;;;;14.15;12.65;;;;;;;18.45;100.00;98353.88;2204118;80;20977;-89
2022/08/14 05:36:01;;;;;;;15.45;13.20;;;;;;;18.45;100.00;98357.84;2232515;79;21476;-90
2022/08/14 05:39:02;;;;;;;13.25;11.70;;;;;;;18.43;100.00;98349.34;2233969;79;22198;-89
2022/08/14 05:42:02;;;;;;;12.85;11.55;;;;;;;18.44;100.00;98354.39;2233439;79;21040;-89
2022/08/14 05:45:03;;;;;;;13.83;12.43;;;;;;;18.43;100.00;98341.39;2229778;79;20996;-90
2022/08/14 05:48:04;;;;;;;12.73;11.43;;;;;;;18.45;100.00;98344.59;2235492;80;21530;-89
2022/08/14 05:51:05;;;;;;;16.12;13.65;;;;;;;18.46;100.00;98349.66;2232872;79;21613;-89
2022/08/14 05:54:05;;;;;;;14.83;12.28;;;;;;;18.48;100.00;98356.06;2234671;79;20954;-89
2022/08/14 05:57:06;;;;;;;14.93;13.18;;;;;;;18.50;100.00;98350.00;2233181;79;21579;-87
2022/08/14 06:00:07;;;;;;;12.65;11.35;;;;;;;18.49;100.00;98352.38;2232079;79;21044;-86
2022/08/14 06:03:08;;;;;;;15.23;12.78;;;;;;;18.47;100.00;98357.91;2232235;79;20972;-85
2022/08/14 06:06:08;;;;;;;13.88;12.03;;;;;;;18.48;100.00;98360.05;2233285;80;21003;-93
2022/08/14 06:09:09;;;;;;;13.88;12.55;;;;;;;18.50;100.00;98359.80;2230824;79;21752;-93
2022/08/14 06:12:10;;;;;;;13.80;12.30;;;;;;;18.53;100.00;98364.09;2230569;79;21036;-90
2022/08/14 06:15:10;;;;;;;16.37;14.13;;;;;;;18.57;100.00;98359.94;2228923;79;21040;-90
2022/08/14 06:18:11;;;;;;;13.20;11.73;;;;;;;18.60;100.00;98357.31;2231160;79;21176;-89
2022/08/14 06:21:14;;;;;;;13.25;11.78;;;;;;;18.65;100.00;98359.58;2230568;79;21067;-89
2022/08/14 06:24:15;;;;;;;12.75;11.40;;;;;;;18.73;100.00;98363.13;2231681;79;21092;-86
2022/08/14 06:27:16;;;;;;;12.85;11.63;;;;;;;18.79;100.00;98360.58;2234899;79;20996;-90
2022/08/14 06:30:17;;;;;;;12.35;11.05;;;;;;;18.83;100.00;98357.19;2234454;80;21499;-89
2022/08/14 06:33:18;;;;;;;11.68;10.50;;;;;;;18.90;100.00;98361.81;2233850;79;21008;-87
2022/08/14 06:36:19;;;;;;;13.22;11.83;;;;;;;18.96;100.00;98362.19;2233451;79;21126;-86
2022/08/14 06:39:19;;;;;;;13.43;11.95;;;;;;;19.02;100.00;98361.75;2232717;79;20997;-87
2022/08/14 06:42:20;;;;;;;13.28;10.85;;;;;;;19.08;100.00;98374.03;2233445;79;21570;-86
2022/08/14 06:45:21;;;;;;;14.70;13.25;;;;;;;19.13;100.00;98363.50;2233967;79;21000;-86
2022/08/14 06:48:22;;;;;;;16.62;14.90;;;;;;;19.14;100.00;98357.14;2230311;79;21056;-84
2022/08/14 06:51:23;;;;;;;17.30;14.98;;;;;;;19.20;100.00;98355.34;2233478;79;21044;-82
2022/08/14 06:54:24;;;;;;;11.65;10.38;;;;;;;19.31;100.00;98354.47;2231930;79;21460;-88
2022/08/14 06:57:25;;;;;;;16.55;14.80;;;;;;;19.40;100.00;98352.20;2231658;79;21079;-86
2022/08/14 07:00:25;;;;;;;15.28;13.75;;;;;;;19.56;100.00;98356.14;2232138;79;20977;-86
2022/08/14 07:06:45;;;;;;;13.90;12.58;;;;;;;19.90;100.00;98340.09;2235290;80;21000;-89
2022/08/14 07:09:46;;;;;;;16.10;14.40;;;;;;;20.17;100.00;98354.21;2235713;80;21004;-88
2022/08/14 07:12:47;;;;;;;15.08;13.68;;;;;;;20.30;100.00;98354.36;2235142;80;21048;-84
2022/08/14 07:15:49;;;;;;;18.87;16.25;;;;;;;20.33;100.00;98355.17;2229970;79;21108;-87
2022/08/14 07:18:50;;;;;;;14.25;12.13;;;;;;;20.32;100.00;98347.45;2231753;79;21095;-87
2022/08/14 07:21:51;;;;;;;13.70;12.30;;;;;;;20.25;100.00;98352.16;2233962;79;21071;-86
2022/08/14 07:24:51;;;;;;;12.45;11.15;;;;;;;20.33;100.00;98350.39;2235787;80;20964;-90
2022/08/14 07:27:52;;;;;;;16.32;14.18;;;;;;;20.45;100.00;98349.20;2233460;79;21043;-91
2022/08/14 07:30:56;;;;;;;14.13;12.73;;;;;;;20.57;100.00;98349.03;2233395;79;21476;-90
2022/08/14 07:33:56;;;;;;;14.53;13.18;;;;;;;20.73;100.00;98347.31;2234223;80;20985;-86
2022/08/14 07:36:56;;;;;;;15.08;13.53;;;;;;;20.90;100.00;98347.17;2233082;79;21562;-86
2022/08/14 07:39:57;;;;;;;11.90;10.70;;;;;;;21.04;100.00;98351.02;2233368;79;21536;-89
2022/08/14 07:42:58;;;;;;;11.73;10.63;;;;;;;21.25;100.00;98353.28;2230071;79;21059;-89
2022/08/14 07:46:00;;;;;;;12.98;11.63;;;;;;;21.46;100.00;98341.70;2110443;84;21080;-88
2022/08/14 07:49:01;;;;;;;12.35;11.12;;;;;;;21.52;100.00;98352.66;2112179;83;21075;-89
2022/08/14 07:52:02;;;;;;;12.82;11.53;;;;;;;21.72;100.00;98352.48;2105969;84;21071;-89
2022/08/14 07:55:03;;;;;;;11.60;10.50;;;;;;;22.05;100.00;98350.74;2108332;84;21143;-87
2022/08/14 07:58:04;;;;;;;11.97;10.80;;;;;;;22.27;100.00;98349.75;2105292;84;21557;-83
2022/08/14 08:01:05;;;;;;;10.85;9.95;;;;;;;22.43;100.00;98345.51;2102193;84;21070;-85
2022/08/14 08:04:05;;;;;;;10.70;9.63;;;;;;;22.71;100.00;98350.06;2099311;84;21012;-85
2022/08/14 08:07:06;;;;;;;13.53;11.63;;;;;;;22.60;100.00;98352.47;2116747;84;21080;-85
2022/08/14 08:10:29;;;;;;;15.45;10.13;;;;;;;22.46;100.00;98355.37;2113910;84;21557;-85
2022/08/14 08:13:10;;;;;;;15.65;11.18;;;;;;;22.43;100.00;98344.17;2109224;84;21092;-86
2022/08/14 08:16:10;;;;;;;15.58;12.30;;;;;;;22.48;100.00;98342.56;2118087;83;21586;-86
2022/08/14 08:19:11;;;;;;;11.48;10.32;;;;;;;22.47;100.00;98332.43;2117995;84;20972;-84
2022/08/14 08:22:12;;;;;;;11.43;10.32;;;;;;;22.57;100.00;98342.30;2107305;84;21130;-86
2022/08/14 08:25:13;;;;;;;12.00;10.90;;;;;;;22.59;100.00;98338.86;2113887;84;21079;-85
2022/08/14 08:28:14;;;;;;;12.35;11.05;;;;;;;22.54;100.00;98338.31;2118149;84;21508;-86
2022/08/14 08:31:15;;;;;;;13.28;11.97;;;;;;;22.33;100.00;98345.50;2105464;84;21131;-86
2022/08/14 08:34:16;;;;;;;13.68;12.25;;;;;;;22.11;100.00;98345.70;2105330;84;21497;-87
2022/08/14 08:37:16;;;;;;;13.35;12.15;;;;;;;21.97;100.00;98337.92;2111549;84;21114;-88
2022/08/14 08:40:17;;;;;;;14.63;13.15;;;;;;;22.02;100.00;98335.25;2101371;84;20976;-89
2022/08/14 08:43:18;;;;;;;18.25;14.28;;;;;;;22.12;100.00;98338.50;2202318;80;21004;-87
2022/08/14 08:46:19;;;;;;;14.98;13.50;;;;;;;22.25;100.00;98337.22;2229338;79;21556;-87
2022/08/14 08:49:20;;;;;;;13.15;11.83;;;;;;;22.38;100.00;98337.48;2233026;79;21036;-82
2022/08/14 08:52:21;;;;;;;13.30;11.50;;;;;;;22.63;100.00;98329.24;2226616;79;21037;-85
2022/08/14 08:55:22;;;;;;;13.25;11.57;;;;;;;22.83;100.00;98331.91;2232832;79;21035;-84
2022/08/14 08:58:23;;;;;;;13.20;12.00;;;;;;;22.79;100.00;98334.85;2231587;79;20965;-87
2022/08/14 09:01:24;;;;;;;12.85;11.22;;;;;;;22.62;100.00;98327.65;2234431;79;21555;-85
2022/08/14 09:04:25;;;;;;;14.80;13.28;;;;;;;22.60;100.00;98329.25;2228106;79;21075;-86
2022/08/14 09:07:25;;;;;;;12.65;11.45;;;;;;;22.59;100.00;98329.52;2235703;80;20956;-87
2022/08/14 09:10:26;;;;;;;12.63;11.03;;;;;;;22.58;100.00;98335.90;2233936;79;21141;-86
2022/08/14 09:13:28;;;;;;;12.93;11.63;;;;;;;22.63;100.00;98331.37;2236053;80;20957;-87
2022/08/14 09:16:29;;;;;;;13.40;11.90;;;;;;;22.74;100.00;98328.70;2235038;79;20997;-83
2022/08/14 09:19:30;;;;;;;10.88;9.90;;;;;;;22.68;100.00;98337.27;2229176;79;21068;-82
2022/08/14 09:22:31;;;;;;;13.00;11.60;;;;;;;22.84;100.00;98332.70;2231790;79;21051;-82
2022/08/14 09:25:35;;;;;;;12.58;11.38;;;;;;;23.02;100.00;98334.05;2225111;79;20992;-87
2022/08/14 09:28:34;;;;;;;12.20;10.82;;;;;;;23.04;100.00;98324.69;2235147;80;21000;-88
2022/08/14 09:31:35;;;;;;;13.60;11.43;;;;;;;23.00;100.00;98330.31;2235414;80;20980;-85
2022/08/14 09:34:42;;;;;;;11.55;10.35;;;;;;;22.76;100.00;98323.36;2184895;81;20997;-88
2022/08/14 09:37:42;;;;;;;13.55;11.65;;;;;;;22.62;100.00;98323.11;2169350;81;21108;-89
2022/08/14 09:40:43;;;;;;;13.93;12.55;;;;;;;22.69;100.00;98328.19;2131315;82;20976;-87
2022/08/14 09:43:44;;;;;;;11.97;10.88;;;;;;;22.77;100.00;98325.49;2114462;84;21080;-86
2022/08/14 09:46:44;;;;;;;12.73;11.25;;;;;;;22.78;100.00;98329.79;2146579;82;21055;-85
2022/08/14 09:49:45;;;;;;;16.27;12.07;;;;;;;22.92;100.00;98323.65;2133511;82;21013;-83
2022/08/14 09:52:46;;;;;;;15.03;10.80;;;;;;;23.07;100.00;98327.38;2176154;81;21012;-84
2022/08/14 09:55:47;;;;;;;13.65;11.40;;;;;;;23.09;100.00;98324.70;2148304;81;21039;-83
2022/08/14 09:58:48;;;;;;;12.37;11.18;;;;;;;23.03;100.00;98324.97;2180333;81;21455;-84
2022/08/14 10:01:48;;;;;;;13.30;11.95;;;;;;;23.14;100.00;98327.91;2185158;81;21012;-84
2022/08/14 10:04:49;;;;;;;11.50;10.30;;;;;;;23.22;100.00;98321.98;2154869;82;20980;-84
2022/08/14 10:07:51;;;;;;;12.35;11.15;;;;;;;23.31;100.00;98319.03;2185081;81;21552;-84
2022/08/14 10:10:52;;;;;;;13.53;12.18;;;;;;;23.33;100.00;98316.11;2178551;81;21055;-85
2022/08/14 10:13:56;;;;;;;13.10;11.80;;;;;;;23.25;100.00;98323.60;2198620;80;21049;-85
2022/08/14 10:16:57;;;;;;;12.78;11.40;;;;;;;23.06;100.00;98327.12;2191909;81;21024;-85
2022/08/14 10:19:58;;;;;;;12.25;10.95;;;;;;;22.85;100.00;98320.98;2186324;81;21020;-84
2022/08/14 10:22:58;;;;;;;14.85;11.65;;;;;;;22.76;100.00;98324.69;2163990;81;21051;-84
2022/08/14 10:26:00;;;;;;;13.55;12.20;;;;;;;22.82;100.00;98324.17;2182066;81;21497;-84
2022/08/14 10:29:01;;;;;;;13.50;12.13;;;;;;;23.01;100.00;98321.77;2182279;82;21128;-85
2022/08/14 10:32:02;;;;;;;12.23;11.12;;;;;;;23.25;100.00;98316.92;2184654;81;21009;-85
2022/08/14 10:35:02;;;;;;;12.93;11.28;;;;;;;23.35;100.00;98309.95;2176323;81;21118;-84
2022/08/14 10:38:06;;;;;;;12.60;11.30;;;;;;;23.35;100.00;98318.77;2235596;79;21557;-84
2022/08/14 10:41:06;;;;;;;13.10;11.38;;;;;;;23.22;100.00;98309.97;2216764;79;21037;-83
2022/08/14 10:44:08;;;;;;;13.43;12.13;;;;;;;23.07;100.00;98318.03;2235437;79;21076;-84
2022/08/14 10:47:23;;;;;;;;;;;;;;;;;;;;;
2022/08/14 10:50:14;;;;;;;12.28;11.05;;;;;;;22.99;100.00;98328.72;2151369;82;21077;-84
2022/08/14 10:53:18;;;;;;;13.15;11.70;;;;;;;23.12;100.00;98324.69;2060715;85;21583;-84
2022/08/14 10:56:19;;;;;;;12.45;11.28;;;;;;;23.31;100.00;98322.23;2142702;81;21105;-83
2022/08/14 10:59:22;;;;;;;12.40;11.20;;;;;;;23.47;100.00;98321.12;2169451;81;22345;-84
2022/08/14 11:02:27;;;;;;;12.82;11.63;;;;;;;23.51;100.00;98325.66;2166859;81;21021;-86
2022/08/14 11:05:27;;;;;;;14.55;11.08;;;;;;;23.53;100.00;98328.06;2176614;81;22687;-84
2022/08/14 11:08:28;;;;;;;12.82;11.55;;;;;;;23.55;100.00;98326.70;2093790;84;21080;-83
2022/08/14 11:11:29;;;;;;;12.65;11.40;;;;;;;23.46;100.00;98328.88;2117719;84;21043;-84
2022/08/14 11:14:30;;;;;;;14.25;12.78;;;;;;;23.47;100.00;98333.14;2090459;84;21027;-85
2022/08/14 11:17:31;;;;;;;11.78;10.70;;;;;;;23.48;100.00;98325.39;2085737;85;21147;-83
2022/08/14 11:20:32;;;;;;;14.95;13.45;;;;;;;23.48;100.00;98336.08;2114880;83;20984;-84
2022/08/14 11:23:32;;;;;;;12.93;11.70;;;;;;;23.44;100.00;98327.02;2116087;83;21070;-84
2022/08/14 11:26:34;;;;;;;14.40;12.82;;;;;;;23.45;100.00;98336.62;2085891;84;21076;-84
2022/08/14 11:29:39;;;;;;;14.83;12.58;;;;;;;23.63;100.00;98335.27;2100820;84;21089;-82
2022/08/14 11:32:39;;;;;;;15.20;13.68;;;;;;;23.75;100.00;98332.53;2108915;83;21083;-83
2022/08/14 11:35:42;;;;;;;14.70;12.68;;;;;;;23.78;100.00;98327.99;2157763;82;21163;-87
2022/08/14 11:41:45;;;;;;;16.70;15.05;;;;;;;23.85;100.00;98327.67;2071543;85;21095;-83
2022/08/14 11:44:46;;;;;;;18.05;15.23;;;;;;;23.99;100.00;98327.88;2056786;86;21114;-80
2022/08/14 11:50:49;;;;;;;17.37;15.68;;;;;;;24.20;100.00;98325.34;2030512;87;21083;-85
2022/08/14 11:53:50;;;;;;;19.62;17.65;;;;;;;24.23;100.00;98338.69;2035020;87;21167;-84
2022/08/14 11:56:51;;;;;;;17.45;15.45;;;;;;;24.29;100.00;98336.25;2026234;87;21087;-85
2022/08/14 11:59:52;;;;;;;16.05;14.45;;;;;;;24.52;100.00;98338.27;2035250;87;20992;-84
2022/08/14 12:02:52;;;;;;;17.75;15.95;;;;;;;24.78;100.00;98344.23;2020485;87;21094;-84
2022/08/14 12:05:56;;;;;;;20.50;18.40;;;;;;;24.90;100.00;98341.98;2030403;87;21198;-84
2022/08/14 12:08:57;;;;;;;21.70;19.57;;;;;;;24.91;100.00;98337.42;2037039;87;21024;-86
2022/08/14 12:11:58;;;;;;;21.10;19.10;;;;;;;24.91;100.00;98340.09;2027928;87;21055;-84
2022/08/14 12:14:59;;;;;;;22.52;20.12;;;;;;;25.05;100.00;98344.27;2010515;87;21303;-85
2022/08/14 12:18:00;;;;;;;18.15;16.40;;;;;;;25.29;100.00;98342.97;1970550;88;21135;-87
2022/08/14 12:21:00;;;;;;;24.67;20.30;;;;;;;25.40;100.00;98345.79;2009683;87;21639;-83
2022/08/14 12:24:01;;;;;;;22.07;19.80;;;;;;;25.40;100.00;98343.91;2055501;86;21003;-84
2022/08/14 12:27:02;;;;;;;22.48;20.20;;;;;;;25.52;100.00;98349.69;2052572;87;21057;-85
2022/08/14 12:30:03;;;;;;;22.50;20.30;;;;;;;25.55;100.00;98354.21;2051493;87;21035;-85
2022/08/14 12:33:04;;;;;;;21.48;19.27;;;;;;;25.57;100.00;98346.67;2051405;87;21072;-88
2022/08/14 12:36:05;;;;;;;22.60;20.40;;;;;;;25.63;100.00;98345.55;2050692;87;21675;-84
2022/08/14 12:39:06;;;;;;;20.68;18.48;;;;;;;25.56;100.00;98348.56;2050320;87;21024;-86
2022/08/14 12:42:06;;;;;;;21.80;19.65;;;;;;;25.52;100.00;98349.69;2051365;87;21070;-84
2022/08/14 12:45:10;;;;;;;21.23;19.12;;;;;;;25.33;100.00;98348.83;2118707;82;21008;-86
2022/08/14 12:48:10;;;;;;;20.90;18.73;;;;;;;25.21;100.00;98341.16;2156943;82;21063;-84
2022/08/14 12:51:11;;;;;;;21.20;19.07;;;;;;;25.22;100.00;98336.59;2157174;82;21039;-84
2022/08/14 12:54:13;;;;;;;21.70;19.55;;;;;;;25.28;100.00;98335.47;2202892;80;21526;-85
2022/08/14 12:57:14;;;;;;;20.75;18.73;;;;;;;25.36;100.00;98336.73;2228781;80;21509;-84
2022/08/14 13:00:18;;;;;;;21.48;19.12;;;;;;;25.38;100.00;98331.34;2228769;80;21073;-84
2022/08/14 13:03:18;;;;;;;22.35;19.95;;;;;;;25.31;100.00;98322.84;2228797;80;21053;-84
2022/08/14 13:06:23;;;;;;;21.00;18.80;;;;;;;25.26;100.00;98317.55;2228676;80;21010;-84
2022/08/14 13:09:26;;;;;;;22.50;20.30;;;;;;;25.24;100.00;98317.84;2150512;81;21093;-84
2022/08/14 13:12:28;;;;;;;19.50;17.55;;;;;;;25.27;100.00;98316.47;2184768;81;21001;-84
2022/08/14 13:15:27;;;;;;;19.98;17.85;;;;;;;25.30;100.00;98310.53;2140551;82;21035;-83
2022/08/14 13:18:27;;;;;;;20.37;18.10;;;;;;;25.35;100.00;98302.45;2229550;79;20993;-83
2022/08/14 13:21:28;;;;;;;18.92;16.90;;;;;;;25.39;100.00;98289.27;2225908;79;21116;-83
2022/08/14 13:24:29;;;;;;;19.77;17.55;;;;;;;25.45;100.00;98279.55;2220097;79;21498;-85
2022/08/14 13:27:29;;;;;;;18.90;17.12;;;;;;;25.65;100.00;98265.63;2221712;80;21165;-84
2022/08/14 13:30:30;;;;;;;18.98;17.17;;;;;;;25.86;100.00;98260.27;2234451;80;21133;-83
2022/08/14 13:33:31;;;;;;;16.10;14.63;;;;;;;26.01;100.00;98252.02;2232906;79;20985;-85
2022/08/14 13:36:33;;;;;;;17.73;16.02;;;;;;;26.08;100.00;98252.45;2223942;79;20994;-85
2022/08/14 13:39:34;;;;;;;16.40;14.68;;;;;;;25.96;100.00;98249.94;2224361;79;21041;-86
2022/08/14 13:42:35;;;;;;;16.93;15.32;;;;;;;25.73;100.00;98240.34;2229060;79;21033;-85
2022/08/14 13:45:36;;;;;;;16.27;14.68;;;;;;;25.57;100.00;98241.60;2226639;79;21013;-85
2022/08/14 13:48:36;;;;;;;16.62;14.93;;;;;;;25.45;100.00;98231.86;2236138;80;21492;-85
2022/08/14 13:51:38;;;;;;;16.95;15.30;;;;;;;25.48;100.00;98226.70;2235650;80;21001;-85
2022/08/14 13:54:39;;;;;;;16.97;15.38;;;;;;;25.47;100.00;98236.38;2235540;79;21040;-86
2022/08/14 13:57:40;;;;;;;15.98;14.45;;;;;;;25.50;100.00;98227.20;2235645;80;20943;-85
2022/08/14 14:00:40;;;;;;;16.73;15.03;;;;;;;25.47;100.00;98221.64;2235410;79;21005;-85
2022/08/14 14:03:42;;;;;;;15.85;14.20;;;;;;;25.51;100.00;98227.48;2224844;79;21066;-86
2022/08/14 14:06:42;;;;;;;15.48;13.95;;;;;;;25.45;100.00;98219.25;2234299;79;21052;-85
2022/08/14 14:09:43;;;;;;;14.70;13.20;;;;;;;25.40;100.00;98217.17;2226510;79;21461;-85
2022/08/14 14:12:44;;;;;;;15.43;13.93;;;;;;;25.34;100.00;98215.12;2218746;79;21069;-83